Time;durP1;ratioP1;P1;durP2;ratioP2;P2;SDS_P1;SDS_P2;PMS_P1;PMS_P2;Temp;Humidity;BMP_temperature;BMP_pressure;BME280_temperature;BME280_humidity;BME280_pressure;Samples;Min_cycle;Max_cycle;Signal;HPM_P1;HPM_P2
2024/02/10 00:01:25;;;;;;;3.60;1.52;;;10.40;99.90;;;;;;5098377;28;20051;-64
2024/02/10 00:03:52;;;;;;;3.45;1.77;;;10.40;99.90;;;;;;5094200;28;20134;-63
2024/02/10 00:06:19;;;;;;;4.22;1.55;;;10.40;99.90;;;;;;5103624;28;20100;-64
2024/02/10 00:08:46;;;;;;;6.32;1.77;;;10.40;99.90;;;;;;5097506;28;20515;-64
2024/02/10 00:11:13;;;;;;;4.07;1.35;;;10.40;99.90;;;;;;5094259;28;20048;-64
2024/02/10 00:13:41;;;;;;;4.68;1.40;;;10.50;99.90;;;;;;5101072;28;20516;-64
2024/02/10 00:16:09;;;;;;;4.78;1.40;;;10.50;99.90;;;;;;5101601;27;20078;-64
2024/02/10 00:18:37;;;;;;;4.13;1.20;;;10.50;99.90;;;;;;5096265;28;20044;-64
2024/02/10 00:21:04;;;;;;;4.60;1.67;;;10.50;99.90;;;;;;5099958;28;20061;-63
2024/02/10 00:23:31;;;;;;;1.92;1.23;;;10.50;99.90;;;;;;5094211;28;20040;-65
2024/02/10 00:25:58;;;;;;;5.82;1.30;;;10.50;99.90;;;;;;5094079;28;20134;-64
2024/02/10 00:28:25;;;;;;;3.20;1.08;;;10.50;99.90;;;;;;5099503;28;20104;-64
2024/02/10 00:30:59;;;;;;;7.55;2.30;;;10.50;99.90;;;;;;5100505;28;20115;-64
2024/02/10 00:33:26;;;;;;;7.90;1.50;;;10.40;99.90;;;;;;5100961;28;20054;-63
2024/02/10 00:35:54;;;;;;;6.07;1.23;;;10.40;99.90;;;;;;5102684;28;20411;-64
2024/02/10 00:38:21;;;;;;;4.80;1.02;;;10.40;99.90;;;;;;5105973;28;20050;-63
2024/02/10 00:40:48;;;;;;;9.15;1.77;;;10.50;99.90;;;;;;5097634;28;20055;-66
2024/02/10 00:43:15;;;;;;;5.18;1.67;;;10.50;99.90;;;;;;5103025;28;20043;-64
2024/02/10 00:45:46;;;;;;;5.70;1.08;;;10.40;99.90;;;;;;5094189;28;20146;-64
2024/02/10 00:48:13;;;;;;;4.43;1.30;;;10.40;99.90;;;;;;5098910;28;20039;-63
2024/02/10 00:50:41;;;;;;;7.43;1.85;;;10.40;99.90;;;;;;5096001;28;20052;-63
2024/02/10 00:53:09;;;;;;;5.22;1.45;;;10.40;99.90;;;;;;5093619;28;20048;-63
2024/02/10 00:55:36;;;;;;;8.38;1.60;;;10.40;99.90;;;;;;5095331;28;20039;-64
2024/02/10 00:58:06;;;;;;;10.77;1.70;;;10.40;99.90;;;;;;5103365;28;20442;-63
2024/02/10 01:00:36;;;;;;;13.48;1.98;;;10.30;99.90;;;;;;5098709;28;20059;-63
2024/02/10 01:03:08;;;;;;;10.13;2.00;;;10.40;99.90;;;;;;5105526;28;20112;-63
2024/02/10 01:05:37;;;;;;;13.02;2.47;;;10.40;99.90;;;;;;5096694;28;20051;-63
2024/02/10 01:08:08;;;;;;;6.75;1.60;;;10.40;99.90;;;;;;5102596;28;20043;-62
2024/02/10 01:10:35;;;;;;;6.13;2.40;;;10.40;99.90;;;;;;5097456;28;20699;-62
2024/02/10 01:13:03;;;;;;;8.48;1.77;;;10.40;99.90;;;;;;5098416;28;20466;-62
2024/02/10 01:15:32;;;;;;;6.72;1.67;;;10.40;99.90;;;;;;5100096;27;20093;-62
2024/02/10 01:18:03;;;;;;;9.80;1.95;;;10.40;99.90;;;;;;5100272;28;20052;-62
2024/02/10 01:20:31;;;;;;;8.07;1.95;;;10.40;99.90;;;;;;5103158;28;20171;-62
2024/02/10 01:22:59;;;;;;;4.10;1.95;;;10.40;99.90;;;;;;5092928;28;20039;-62
2024/02/10 01:25:29;;;;;;;13.02;2.03;;;10.40;99.90;;;;;;5093148;28;20135;-63
2024/02/10 01:27:56;;;;;;;9.55;1.75;;;10.50;99.90;;;;;;5100338;28;20512;-62
2024/02/10 01:30:26;;;;;;;7.55;1.80;;;10.40;99.90;;;;;;5093563;28;20051;-62
2024/02/10 01:32:57;;;;;;;8.90;2.17;;;10.40;99.90;;;;;;5102469;28;20123;-62
2024/02/10 01:35:25;;;;;;;9.88;2.20;;;10.40;99.90;;;;;;5096300;28;20083;-63
2024/02/10 01:37:52;;;;;;;10.93;3.28;;;10.40;99.90;;;;;;5092825;28;20044;-64
2024/02/10 01:40:19;;;;;;;9.35;1.92;;;10.40;99.90;;;;;;5102004;27;20201;-62
2024/02/10 01:42:46;;;;;;;14.65;3.17;;;10.40;99.90;;;;;;5095414;28;20124;-62
2024/02/10 01:45:13;;;;;;;11.27;2.00;;;10.40;99.90;;;;;;5099028;28;20055;-62
2024/02/10 01:47:44;;;;;;;9.38;2.53;;;10.40;99.90;;;;;;5094946;28;20124;-63
2024/02/10 01:50:12;;;;;;;7.07;1.88;;;10.40;99.90;;;;;;5100774;28;20396;-63
2024/02/10 01:52:39;;;;;;;11.52;2.35;;;10.40;99.90;;;;;;5094028;28;20043;-63
2024/02/10 01:55:09;;;;;;;15.20;2.88;;;10.40;99.90;;;;;;5102024;28;20146;-63
2024/02/10 01:57:36;;;;;;;9.65;1.80;;;10.40;99.90;;;;;;5096519;28;20046;-62
2024/02/10 02:00:17;;;;;;;5.80;1.75;;;10.40;99.90;;;;;;5096873;28;20048;-63
2024/02/10 02:02:43;;;;;;;7.15;2.05;;;10.40;99.90;;;;;;5089845;28;20047;-62
2024/02/10 02:05:10;;;;;;;5.72;1.45;;;10.40;99.90;;;;;;5089363;28;20502;-63
2024/02/10 02:07:38;;;;;;;11.25;3.00;;;10.40;99.90;;;;;;5097833;28;20080;-63
2024/02/10 02:10:08;;;;;;;6.43;1.20;;;10.40;99.90;;;;;;5104669;28;20451;-63
2024/02/10 02:12:46;;;;;;;11.13;2.00;;;10.40;99.90;;;;;;5097924;28;20051;-63
2024/02/10 02:15:17;;;;;;;7.05;1.63;;;10.50;99.90;;;;;;5094412;28;20134;-63
2024/02/10 02:17:45;;;;;;;12.65;2.38;;;10.40;99.90;;;;;;5096229;28;20040;-63
2024/02/10 02:20:12;;;;;;;7.75;1.73;;;10.40;99.90;;;;;;5096591;28;20076;-63
2024/02/10 02:23:14;;;;;;;10.60;1.75;;;10.40;99.90;;;;;;5098896;28;20040;-63
2024/02/10 02:25:41;;;;;;;13.05;2.00;;;10.40;99.90;;;;;;5085297;28;20052;-63
2024/02/10 02:28:08;;;;;;;17.20;2.25;;;10.40;99.90;;;;;;5098765;28;20043;-63
2024/02/10 02:30:35;;;;;;;7.57;2.20;;;10.40;99.90;;;;;;5102745;28;20085;-63
2024/02/10 02:33:05;;;;;;;4.75;1.48;;;10.40;99.90;;;;;;5092528;28;20150;-63
2024/02/10 02:35:32;;;;;;;10.32;2.40;;;10.40;99.90;;;;;;5089656;28;20044;-63
2024/02/10 02:37:59;;;;;;;9.05;1.55;;;10.40;99.90;;;;;;5092174;28;20089;-63
2024/02/10 02:40:26;;;;;;;15.75;2.53;;;10.40;99.90;;;;;;5102092;28;20043;-63
2024/02/10 02:42:53;;;;;;;14.45;2.47;;;10.40;99.90;;;;;;5092812;28;20389;-63
2024/02/10 02:45:20;;;;;;;12.05;2.10;;;10.40;99.90;;;;;;5099920;28;20056;-63
2024/02/10 02:47:46;;;;;;;6.20;1.50;;;10.40;99.90;;;;;;5097320;28;20047;-63
2024/02/10 02:50:14;;;;;;;9.48;2.75;;;10.40;99.90;;;;;;5091697;28;20068;-63
2024/02/10 02:52:43;;;;;;;8.90;1.58;;;10.40;99.90;;;;;;5086619;28;20062;-63
2024/02/10 02:55:11;;;;;;;11.10;2.28;;;10.40;99.90;;;;;;5095222;28;20063;-64
2024/02/10 02:57:39;;;;;;;5.63;1.73;;;10.40;99.90;;;;;;5098933;28;20052;-63
2024/02/10 03:00:06;;;;;;;13.98;2.80;;;10.50;99.90;;;;;;5095399;28;20086;-63
2024/02/10 03:02:38;;;;;;;5.72;2.65;;;10.50;99.90;;;;;;5100410;28;20256;-63
2024/02/10 03:05:06;;;;;;;7.95;1.55;;;10.50;99.90;;;;;;5101583;28;20048;-63
2024/02/10 03:07:33;;;;;;;5.47;1.33;;;10.50;99.90;;;;;;5095162;28;20051;-64
2024/02/10 03:10:00;;;;;;;6.82;1.15;;;10.50;99.90;;;;;;5095214;28;20131;-63
2024/02/10 03:12:27;;;;;;;10.50;3.13;;;10.50;99.90;;;;;;5095139;28;20047;-63
2024/02/10 03:14:54;;;;;;;6.55;1.60;;;10.50;99.90;;;;;;5101909;28;20047;-63
2024/02/10 03:17:21;;;;;;;10.52;1.80;;;10.40;99.90;;;;;;5102660;28;20389;-63
2024/02/10 03:19:48;;;;;;;10.85;1.92;;;10.40;99.90;;;;;;5101177;28;20055;-64
2024/02/10 03:22:15;;;;;;;11.43;1.80;;;10.40;99.90;;;;;;5101240;28;20048;-63
2024/02/10 03:24:47;;;;;;;5.22;1.42;;;10.40;99.90;;;;;;5101553;28;20052;-63
2024/02/10 03:27:15;;;;;;;9.20;3.40;;;10.40;99.90;;;;;;5102848;28;20052;-63
2024/02/10 03:29:42;;;;;;;4.65;1.17;;;10.40;99.90;;;;;;5102086;28;20066;-63
2024/02/10 03:32:09;;;;;;;9.93;2.30;;;10.40;99.90;;;;;;5103050;28;20052;-63
2024/02/10 03:34:35;;;;;;;10.40;1.92;;;10.40;99.90;;;;;;5100743;28;20421;-63
2024/02/10 03:37:03;;;;;;;7.18;1.98;;;10.40;99.90;;;;;;5100966;28;20075;-64
2024/02/10 03:39:29;;;;;;;13.93;3.38;;;10.40;99.90;;;;;;5094735;28;20047;-63
2024/02/10 03:41:56;;;;;;;9.27;2.08;;;10.30;99.90;;;;;;5103223;28;20043;-63
2024/02/10 03:44:23;;;;;;;9.90;2.38;;;10.30;99.90;;;;;;5101567;28;20044;-63
2024/02/10 03:46:53;;;;;;;8.25;3.00;;;10.30;99.90;;;;;;5097552;28;20055;-63
2024/02/10 03:49:20;;;;;;;12.05;2.70;;;10.20;99.90;;;;;;5095694;28;20487;-63
2024/02/10 03:51:47;;;;;;;8.02;2.53;;;10.30;99.90;;;;;;5098690;28;20079;-63
2024/02/10 03:54:14;;;;;;;8.00;3.00;;;10.30;99.90;;;;;;5094174;28;20075;-63
2024/02/10 03:56:42;;;;;;;5.28;2.92;;;10.30;99.90;;;;;;5102020;28;20043;-63
2024/02/10 03:59:09;;;;;;;11.07;2.88;;;10.30;99.90;;;;;;5106283;28;20051;-64
2024/02/10 04:01:36;;;;;;;7.68;2.85;;;10.30;99.90;;;;;;5100913;28;20086;-64
2024/02/10 04:04:03;;;;;;;10.95;3.00;;;10.30;99.90;;;;;;5098879;28;20131;-63
2024/02/10 04:06:30;;;;;;;8.10;2.78;;;10.20;99.90;;;;;;5098766;28;20035;-63
2024/02/10 04:08:58;;;;;;;22.95;3.38;;;10.20;99.90;;;;;;5096216;28;20596;-63
2024/02/10 04:11:24;;;;;;;10.05;2.72;;;10.20;99.90;;;;;;5101572;28;20047;-63
2024/02/10 04:13:52;;;;;;;11.10;3.55;;;10.20;99.90;;;;;;5102984;28;20085;-63
2024/02/10 04:16:19;;;;;;;10.20;3.45;;;10.20;99.90;;;;;;5099132;28;20050;-63
2024/02/10 04:18:46;;;;;;;10.90;3.15;;;10.20;99.90;;;;;;5098539;28;20048;-63
2024/02/10 04:21:13;;;;;;;10.45;3.08;;;10.20;99.90;;;;;;5089472;28;20052;-63
2024/02/10 04:23:42;;;;;;;11.00;3.55;;;10.20;99.90;;;;;;5100591;28;20113;-63
2024/02/10 04:26:09;;;;;;;7.45;3.03;;;10.30;99.90;;;;;;5103617;28;20174;-64
2024/02/10 04:28:36;;;;;;;8.90;3.20;;;10.30;99.90;;;;;;5095949;28;20462;-63
2024/02/10 04:31:03;;;;;;;12.43;3.78;;;10.20;99.90;;;;;;5101012;28;20083;-62
2024/02/10 04:33:30;;;;;;;9.55;3.17;;;10.30;99.90;;;;;;5101454;28;20058;-62
2024/02/10 04:35:57;;;;;;;8.57;3.78;;;10.30;99.90;;;;;;5097759;28;20043;-63
2024/02/10 04:38:24;;;;;;;8.02;3.25;;;10.30;99.90;;;;;;5101265;28;20052;-62
2024/02/10 04:40:51;;;;;;;11.63;4.47;;;10.30;99.90;;;;;;5104995;27;20051;-62
2024/02/10 04:43:19;;;;;;;9.52;3.22;;;10.30;99.90;;;;;;5100209;28;20047;-62
2024/02/10 04:45:48;;;;;;;9.20;3.13;;;10.30;99.90;;;;;;5105716;28;20155;-62
2024/02/10 04:48:19;;;;;;;12.40;3.65;;;10.30;99.90;;;;;;5094041;28;20043;-62
2024/02/10 04:50:47;;;;;;;12.07;3.83;;;10.30;99.90;;;;;;5094097;28;20055;-62
2024/02/10 04:53:17;;;;;;;9.48;3.58;;;10.30;99.90;;;;;;5096146;28;20048;-63
2024/02/10 04:55:44;;;;;;;8.63;3.85;;;10.30;99.90;;;;;;5104285;28;20048;-63
2024/02/10 04:58:12;;;;;;;13.00;3.60;;;10.30;99.90;;;;;;5097887;28;20048;-62
2024/02/10 05:00:40;;;;;;;12.95;3.70;;;10.30;99.90;;;;;;5100986;28;20081;-62
2024/02/10 05:03:08;;;;;;;7.10;3.45;;;10.30;99.90;;;;;;5092538;28;20052;-63
2024/02/10 05:05:35;;;;;;;7.38;3.25;;;10.20;99.90;;;;;;5099585;28;20472;-62
2024/02/10 05:08:02;;;;;;;7.43;3.42;;;10.00;99.90;;;;;;5101215;28;20112;-62
2024/02/10 05:10:29;;;;;;;11.77;3.35;;;10.00;99.90;;;;;;5098406;28;20413;-62
2024/02/10 05:12:56;;;;;;;7.70;3.33;;;9.90;99.90;;;;;;5093262;28;20515;-63
2024/02/10 05:15:24;;;;;;;10.98;3.60;;;9.90;99.90;;;;;;5094736;28;20052;-62
2024/02/10 05:17:51;;;;;;;9.88;4.00;;;9.80;99.90;;;;;;5093666;28;20132;-62
2024/02/10 05:20:26;;;;;;;11.88;3.63;;;9.70;99.90;;;;;;5098894;28;20514;-62
2024/02/10 05:22:57;;;;;;;10.55;4.63;;;9.70;99.90;;;;;;5100190;28;20059;-62
2024/02/10 05:25:31;;;;;;;8.88;3.70;;;9.60;99.90;;;;;;5095373;28;20190;-62
2024/02/10 05:28:00;;;;;;;14.13;3.50;;;9.50;99.90;;;;;;5100906;28;20131;-62
2024/02/10 05:30:28;;;;;;;5.78;2.95;;;9.40;99.90;;;;;;5105981;28;20058;-62
2024/02/10 05:33:02;;;;;;;9.10;4.43;;;9.40;99.90;;;;;;5096491;28;20059;-62
2024/02/10 05:35:30;;;;;;;10.90;4.57;;;9.30;99.90;;;;;;5094647;28;20158;-62
2024/02/10 05:38:02;;;;;;;8.93;4.55;;;9.30;99.90;;;;;;5103462;28;20044;-62
2024/02/10 05:40:30;;;;;;;8.25;4.15;;;9.30;99.90;;;;;;5095868;28;20500;-61
2024/02/10 05:42:58;;;;;;;6.57;4.60;;;9.20;99.90;;;;;;5099626;28;20046;-62
2024/02/10 05:45:28;;;;;;;11.23;3.90;;;9.20;99.90;;;;;;5103447;28;20458;-63
2024/02/10 05:47:55;;;;;;;7.70;3.72;;;9.30;99.90;;;;;;5101904;28;20048;-62
2024/02/10 05:50:25;;;;;;;15.40;4.25;;;9.30;99.90;;;;;;5095796;28;20051;-63
2024/02/10 05:52:52;;;;;;;10.45;3.72;;;9.30;99.90;;;;;;5093410;28;20124;-62
2024/02/10 05:55:25;;;;;;;6.80;3.55;;;9.30;99.90;;;;;;5097495;28;20048;-62
2024/02/10 05:57:55;;;;;;;8.73;3.45;;;9.30;99.90;;;;;;5096840;28;20047;-62
2024/02/10 06:00:22;;;;;;;8.18;3.65;;;9.40;99.90;;;;;;5098842;28;20404;-62
2024/02/10 06:02:49;;;;;;;8.50;3.60;;;9.30;99.90;;;;;;5096189;28;20070;-62
2024/02/10 06:05:16;;;;;;;5.38;3.30;;;9.30;99.90;;;;;;5093072;28;20043;-62
2024/02/10 06:07:44;;;;;;;11.48;3.13;;;9.30;99.90;;;;;;5104642;28;20045;-62
2024/02/10 06:10:12;;;;;;;8.27;3.20;;;9.20;99.90;;;;;;5100041;28;20147;-62
2024/02/10 06:12:46;;;;;;;9.40;3.17;;;9.20;99.90;;;;;;5097945;28;20087;-62
2024/02/10 06:15:13;;;;;;;12.57;3.85;;;9.20;99.90;;;;;;5094218;28;20128;-62
2024/02/10 06:17:42;;;;;;;13.68;3.25;;;9.20;99.90;;;;;;5098733;28;20043;-63
2024/02/10 06:20:14;;;;;;;10.80;3.10;;;9.20;99.90;;;;;;5100918;28;20077;-62
2024/02/10 06:22:41;;;;;;;9.20;3.20;;;9.20;99.90;;;;;;5103033;28;20105;-62
2024/02/10 06:25:12;;;;;;;6.07;2.70;;;9.20;99.90;;;;;;5097308;28;20058;-63
2024/02/10 06:27:41;;;;;;;9.25;2.38;;;9.20;99.90;;;;;;5096869;28;20048;-62
2024/02/10 06:30:13;;;;;;;4.72;2.30;;;9.20;99.90;;;;;;5094517;28;20262;-63
2024/02/10 06:32:40;;;;;;;6.57;2.83;;;9.30;99.90;;;;;;5102093;28;20107;-63
2024/02/10 06:35:09;;;;;;;3.88;1.95;;;9.30;99.90;;;;;;5088977;28;20052;-63
2024/02/10 06:37:37;;;;;;;5.65;2.60;;;9.30;99.90;;;;;;5103137;28;20106;-62
2024/02/10 06:40:07;;;;;;;9.25;2.47;;;9.30;99.90;;;;;;5101097;28;20157;-60
2024/02/10 06:42:37;;;;;;;7.55;2.25;;;9.20;99.90;;;;;;5095104;28;20060;-63
2024/02/10 06:45:14;;;;;;;8.57;3.03;;;9.20;99.90;;;;;;5101746;28;20551;-63
2024/02/10 06:47:41;;;;;;;5.53;1.85;;;9.10;99.90;;;;;;5102344;28;20462;-63
2024/02/10 06:50:11;;;;;;;7.40;2.17;;;9.10;99.90;;;;;;5094519;28;20043;-63
2024/02/10 06:52:38;;;;;;;3.00;1.80;;;9.10;99.90;;;;;;5101878;28;20047;-62
2024/02/10 06:55:07;;;;;;;5.43;1.90;;;9.10;99.90;;;;;;5095383;28;20047;-64
2024/02/10 06:57:34;;;;;;;3.85;2.30;;;9.10;99.90;;;;;;5106809;28;20047;-62
2024/02/10 07:00:04;;;;;;;4.18;1.88;;;9.10;99.90;;;;;;5096997;28;20189;-62
2024/02/10 07:02:31;;;;;;;7.47;2.08;;;9.10;99.90;;;;;;5095240;28;20504;-63
2024/02/10 07:04:58;;;;;;;4.43;2.17;;;9.10;99.90;;;;;;5101128;28;20138;-62
2024/02/10 07:07:25;;;;;;;6.35;2.05;;;9.20;99.90;;;;;;5102810;27;20035;-63
2024/02/10 07:09:58;;;;;;;5.75;2.50;;;9.20;99.90;;;;;;5092808;28;20392;-61
2024/02/10 07:12:26;;;;;;;4.15;2.17;;;9.20;99.90;;;;;;5099887;28;20043;-63
2024/02/10 07:14:54;;;;;;;9.43;3.45;;;9.20;99.90;;;;;;5109021;28;20052;-62
2024/02/10 07:17:21;;;;;;;6.55;2.28;;;9.20;99.90;;;;;;5103145;28;20052;-63
2024/02/10 07:19:49;;;;;;;2.83;1.88;;;9.20;99.90;;;;;;5102266;28;20055;-62
2024/02/10 07:22:17;;;;;;;6.25;2.47;;;9.20;99.90;;;;;;5099896;28;20059;-61
2024/02/10 07:24:46;;;;;;;3.65;2.00;;;9.20;99.90;;;;;;5104943;28;20048;-62
2024/02/10 07:27:17;;;;;;;9.90;2.90;;;9.20;99.90;;;;;;5104387;28;20123;-62
2024/02/10 07:29:50;;;;;;;5.18;2.78;;;9.10;99.90;;;;;;5098683;28;20051;-62
2024/02/10 07:32:17;;;;;;;5.78;2.40;;;9.10;99.90;;;;;;5102180;28;20047;-62
2024/02/10 07:34:48;;;;;;;5.93;2.10;;;9.20;99.90;;;;;;5099672;28;20068;-62
2024/02/10 07:37:15;;;;;;;6.38;2.47;;;9.10;99.90;;;;;;5095039;28;20058;-62
2024/02/10 07:39:48;;;;;;;6.40;2.20;;;9.20;99.90;;;;;;5096204;28;20094;-63
2024/02/10 07:42:14;;;;;;;7.30;1.75;;;9.20;99.90;;;;;;5094399;28;20400;-63
2024/02/10 07:44:41;;;;;;;2.80;1.90;;;9.20;99.90;;;;;;5096859;28;20105;-63
2024/02/10 07:47:10;;;;;;;6.13;2.83;;;9.20;99.90;;;;;;5094649;28;20438;-63
2024/02/10 07:49:37;;;;;;;4.50;2.00;;;9.20;99.90;;;;;;5092451;28;20048;-62
2024/02/10 07:52:04;;;;;;;4.38;2.30;;;9.20;99.90;;;;;;5099961;28;20117;-63
2024/02/10 07:54:33;;;;;;;5.72;2.25;;;9.30;99.90;;;;;;5102463;28;20075;-62
2024/02/10 07:57:00;;;;;;;6.80;2.03;;;9.30;99.90;;;;;;5097545;28;20071;-62
2024/02/10 07:59:28;;;;;;;5.38;1.95;;;9.30;99.90;;;;;;5100763;28;20744;-62
2024/02/10 08:01:55;;;;;;;6.60;2.38;;;9.20;99.90;;;;;;5094424;28;20437;-63
2024/02/10 08:04:22;;;;;;;4.47;2.00;;;9.30;99.90;;;;;;5096677;28;20044;-62
2024/02/10 08:06:50;;;;;;;8.63;2.28;;;9.20;99.90;;;;;;5096209;28;20066;-62
2024/02/10 08:09:17;;;;;;;5.22;2.70;;;9.20;99.90;;;;;;5097145;28;20039;-62
2024/02/10 08:11:44;;;;;;;4.35;3.05;;;9.20;99.90;;;;;;5102316;28;20040;-62
2024/02/10 08:14:11;;;;;;;7.60;2.08;;;9.30;99.90;;;;;;5101522;28;20078;-61
2024/02/10 08:16:40;;;;;;;7.68;2.83;;;9.20;99.90;;;;;;5101013;28;20047;-62
2024/02/10 08:19:07;;;;;;;3.08;2.45;;;9.20;99.90;;;;;;5098076;28;20048;-62
2024/02/10 08:21:34;;;;;;;4.63;2.58;;;9.30;99.90;;;;;;5097546;28;20048;-61
2024/02/10 08:24:05;;;;;;;6.32;2.00;;;9.30;99.90;;;;;;5101480;28;20114;-62
2024/02/10 08:26:34;;;;;;;6.50;2.30;;;9.40;99.90;;;;;;5097019;28;20054;-61
2024/02/10 08:29:01;;;;;;;7.03;2.22;;;9.40;99.90;;;;;;5099783;28;20044;-61
2024/02/10 08:31:30;;;;;;;7.93;2.03;;;9.40;99.90;;;;;;5092220;28;20056;-59
2024/02/10 08:34:00;;;;;;;7.28;1.85;;;9.40;99.90;;;;;;5102142;28;20039;-61
2024/02/10 08:36:28;;;;;;;4.68;2.58;;;9.40;99.90;;;;;;5094156;28;20134;-61
2024/02/10 08:38:58;;;;;;;10.63;2.90;;;9.40;99.90;;;;;;5094614;28;20135;-61
2024/02/10 08:41:27;;;;;;;6.65;2.83;;;9.40;99.90;;;;;;5094354;28;20040;-61
2024/02/10 08:43:54;;;;;;;8.57;2.85;;;9.40;99.90;;;;;;5097890;28;20064;-60
2024/02/10 08:46:23;;;;;;;6.57;3.13;;;9.40;99.90;;;;;;5047399;28;1314123;-61
2024/02/10 08:48:52;;;;;;;7.13;2.50;;;9.40;99.90;;;;;;5093861;28;20051;-60
2024/02/10 08:51:18;;;;;;;3.50;2.20;;;9.30;99.90;;;;;;5088534;28;20389;-60
2024/02/10 08:53:48;;;;;;;6.18;2.50;;;9.40;99.90;;;;;;5085314;28;20553;-61
2024/02/10 08:56:15;;;;;;;6.68;2.80;;;9.40;99.90;;;;;;5085985;28;20047;-61
2024/02/10 08:58:44;;;;;;;6.82;2.70;;;9.50;99.90;;;;;;5099729;28;20130;-61
2024/02/10 09:01:15;;;;;;;6.35;3.22;;;9.50;99.90;;;;;;5095775;28;20055;-61
2024/02/10 09:03:49;;;;;;;8.80;2.80;;;9.70;99.90;;;;;;5099964;28;20070;-61
2024/02/10 09:06:21;;;;;;;;;;;9.70;99.90;;;;;;5092495;28;20052;-61
2024/02/10 09:08:50;;;;;;;11.85;4.22;;;9.80;99.90;;;;;;5094332;28;20479;-61
2024/02/10 09:11:18;;;;;;;5.22;2.78;;;9.80;99.90;;;;;;5087587;28;20134;-61
2024/02/10 09:13:46;;;;;;;6.65;2.47;;;9.80;99.90;;;;;;5094894;28;20040;-61
2024/02/10 09:16:13;;;;;;;3.45;2.00;;;9.90;99.90;;;;;;5093399;28;20116;-61
2024/02/10 09:18:43;;;;;;;9.70;2.78;;;10.00;99.90;;;;;;5090645;28;20133;-60
2024/02/10 09:21:14;;;;;;;7.63;2.78;;;10.00;99.90;;;;;;5089611;28;20094;-61
2024/02/10 09:23:42;;;;;;;11.70;1.88;;;10.00;99.90;;;;;;5091241;28;20443;-61
2024/02/10 09:26:15;;;;;;;9.13;1.90;;;10.20;99.90;;;;;;5098772;28;20040;-61
2024/02/10 09:28:42;;;;;;;7.60;1.80;;;10.20;99.90;;;;;;5092469;28;20089;-61
2024/02/10 09:31:15;;;;;;;7.93;1.33;;;10.20;99.90;;;;;;5094514;28;20044;-61
2024/02/10 09:33:46;;;;;;;6.07;1.83;;;10.30;99.90;;;;;;5089399;28;20094;-61
2024/02/10 09:36:12;;;;;;;5.68;1.70;;;10.30;99.90;;;;;;5095387;28;20476;-60
2024/02/10 09:38:40;;;;;;;7.07;1.27;;;10.40;99.90;;;;;;5086069;28;20054;-61
2024/02/10 09:41:10;;;;;;;3.10;0.93;;;10.40;99.90;;;;;;5094207;28;20468;-61
2024/02/10 09:43:38;;;;;;;10.20;1.20;;;10.40;99.90;;;;;;5095108;28;20050;-59
2024/02/10 09:46:07;;;;;;;4.72;1.33;;;10.40;99.90;;;;;;5088375;28;20429;-61
2024/02/10 09:48:47;;;;;;;7.68;1.15;;;10.40;99.90;;;;;;5093901;28;20089;-61
2024/02/10 09:51:14;;;;;;;5.47;1.10;;;10.50;99.90;;;;;;5101320;28;20538;-61
2024/02/10 09:53:41;;;;;;;6.68;1.30;;;10.50;99.90;;;;;;5094593;28;20032;-61
2024/02/10 09:56:15;;;;;;;10.30;1.27;;;10.50;99.90;;;;;;5092963;28;20279;-61
2024/02/10 09:58:43;;;;;;;;;;;10.60;99.90;;;;;;5092574;28;20043;-61
2024/02/10 10:01:09;;;;;;;6.43;1.17;;;10.60;99.90;;;;;;5091070;28;19939;-61
2024/02/10 10:03:37;;;;;;;3.88;1.10;;;10.60;99.90;;;;;;5095571;28;20047;-61
2024/02/10 10:06:09;;;;;;;5.05;1.30;;;10.60;99.90;;;;;;5088783;28;20040;-61
2024/02/10 10:08:38;;;;;;;5.53;1.17;;;10.60;99.90;;;;;;5090338;28;20043;-61
2024/02/10 10:11:06;;;;;;;7.28;1.17;;;10.70;99.90;;;;;;5088584;28;20474;-61
2024/02/10 10:13:37;;;;;;;7.55;1.33;;;10.70;99.90;;;;;;5096472;28;20138;-61
2024/02/10 10:16:08;;;;;;;6.95;1.00;;;10.70;99.90;;;;;;5092181;28;20047;-61
2024/02/10 10:18:35;;;;;;;7.68;1.42;;;10.70;99.90;;;;;;5090484;28;20062;-60
2024/02/10 10:21:06;;;;;;;4.82;1.35;;;10.70;99.90;;;;;;5102143;28;20416;-60
2024/02/10 10:23:33;;;;;;;5.70;1.67;;;10.70;99.90;;;;;;5096855;28;20051;-61
2024/02/10 10:26:00;;;;;;;2.60;1.08;;;10.70;99.90;;;;;;5101841;28;20083;-61
2024/02/10 10:28:30;;;;;;;4.72;1.33;;;10.70;99.90;;;;;;5096729;28;20074;-61
2024/02/10 10:30:58;;;;;;;2.55;1.23;;;10.70;99.90;;;;;;5097960;28;20128;-61
2024/02/10 10:33:25;;;;;;;4.68;1.20;;;10.70;99.90;;;;;;5091117;28;20651;-61
2024/02/10 10:35:54;;;;;;;2.55;1.40;;;10.70;99.90;;;;;;5095253;28;20043;-60
2024/02/10 10:38:21;;;;;;;6.43;1.50;;;10.80;99.90;;;;;;5099229;28;20558;-62
2024/02/10 10:40:53;;;;;;;9.88;1.45;;;10.80;99.90;;;;;;5096250;28;20040;-61
2024/02/10 10:43:20;;;;;;;6.07;1.50;;;10.90;99.90;;;;;;5095770;28;20073;-61
2024/02/10 10:45:47;;;;;;;7.13;1.38;;;10.90;99.90;;;;;;5077068;28;20098;-60
2024/02/10 10:48:14;;;;;;;7.20;2.78;;;10.90;99.90;;;;;;5089901;28;20056;-60
2024/02/10 10:50:41;;;;;;;5.15;1.55;;;10.90;99.90;;;;;;5094773;28;20075;-60
2024/02/10 10:53:09;;;;;;;6.90;1.27;;;10.90;99.90;;;;;;5091248;28;20143;-60
2024/02/10 10:55:45;;;;;;;6.07;1.40;;;10.90;99.90;;;;;;5081055;28;20051;-61
2024/02/10 10:58:16;;;;;;;3.17;0.80;;;11.00;99.90;;;;;;5088069;28;20060;-59
2024/02/10 11:00:44;;;;;;;8.07;1.63;;;11.00;99.90;;;;;;5094694;28;20051;-60
2024/02/10 11:03:14;;;;;;;6.10;1.25;;;11.00;99.90;;;;;;5090251;28;20070;-61
2024/02/10 11:05:42;;;;;;;8.23;1.58;;;11.10;99.90;;;;;;5101100;28;20075;-61
2024/02/10 11:08:13;;;;;;;4.80;1.40;;;11.10;99.90;;;;;;5098778;28;20105;-60
2024/02/10 11:10:41;;;;;;;2.72;0.82;;;11.20;99.90;;;;;;5098801;28;20135;-59
2024/02/10 11:13:09;;;;;;;12.02;2.90;;;11.20;99.90;;;;;;5088956;28;20052;-62
2024/02/10 11:15:41;;;;;;;6.00;0.90;;;11.20;99.90;;;;;;5087315;28;20044;-60
2024/02/10 11:18:17;;;;;;;4.68;1.23;;;11.30;99.90;;;;;;5092868;28;20060;-60
2024/02/10 11:20:45;;;;;;;5.30;0.98;;;11.30;99.90;;;;;;5100354;28;20039;-60
2024/02/10 11:23:13;;;;;;;3.50;1.15;;;11.40;99.90;;;;;;5099761;28;20076;-60
2024/02/10 11:25:41;;;;;;;6.38;1.35;;;11.40;99.90;;;;;;5095823;28;20119;-60
2024/02/10 11:28:20;;;;;;;7.72;1.00;;;11.50;99.90;;;;;;5103994;28;20120;-60
2024/02/10 11:30:48;;;;;;;2.42;1.05;;;11.50;99.90;;;;;;5095771;28;20044;-60
2024/02/10 11:33:17;;;;;;;1.67;1.52;;;11.60;99.90;;;;;;5099276;28;20104;-61
2024/02/10 11:35:46;;;;;;;4.43;1.10;;;11.60;99.90;;;;;;5097391;28;20040;-60
2024/02/10 11:38:14;;;;;;;2.70;0.98;;;11.60;99.90;;;;;;5095896;28;20054;-60
2024/02/10 11:40:42;;;;;;;4.95;1.10;;;11.70;99.90;;;;;;5091600;28;20050;-60
2024/02/10 11:43:14;;;;;;;1.35;0.70;;;11.80;99.90;;;;;;5098959;28;20637;-60
2024/02/10 11:45:42;;;;;;;5.93;0.95;;;11.80;99.90;;;;;;5099554;28;20064;-60
2024/02/10 11:48:08;;;;;;;2.47;0.73;;;11.80;99.90;;;;;;5096721;28;20059;-60
2024/02/10 11:50:45;;;;;;;4.82;0.95;;;11.80;99.90;;;;;;5096776;28;20047;-60
2024/02/10 11:53:29;;;;;;;3.20;0.70;;;11.90;99.90;;;;;;5099309;28;20516;-60
2024/02/10 11:55:56;;;;;;;3.25;1.48;;;11.90;99.90;;;;;;5095224;28;20051;-60
2024/02/10 11:58:24;;;;;;;1.50;0.52;;;11.90;99.90;;;;;;5101554;28;20078;-60
2024/02/10 12:00:51;;;;;;;1.92;0.80;;;11.90;99.90;;;;;;5102374;28;20421;-60
2024/02/10 12:03:19;;;;;;;3.70;0.77;;;12.00;99.90;;;;;;5099957;28;20044;-60
2024/02/10 12:05:46;;;;;;;1.42;1.00;;;12.10;99.90;;;;;;5098670;28;20040;-60
2024/02/10 12:08:13;;;;;;;3.92;1.08;;;12.20;99.90;;;;;;5098673;28;20044;-60
2024/02/10 12:10:40;;;;;;;4.97;1.05;;;12.10;99.90;;;;;;5101507;28;20054;-61
2024/02/10 12:13:09;;;;;;;5.45;1.25;;;12.20;99.90;;;;;;5100069;28;20047;-60
2024/02/10 12:15:37;;;;;;;4.72;0.95;;;12.30;99.90;;;;;;5091032;28;20493;-60
2024/02/10 12:18:04;;;;;;;4.22;1.40;;;12.30;99.90;;;;;;5088174;28;20538;-62
2024/02/10 12:20:34;;;;;;;3.90;1.00;;;12.40;99.90;;;;;;5100177;28;20128;-60
2024/02/10 12:23:02;;;;;;;5.60;1.35;;;12.50;99.90;;;;;;5091209;28;20068;-60
2024/02/10 12:25:29;;;;;;;7.32;1.35;;;12.50;99.90;;;;;;5092600;28;20268;-59
2024/02/10 12:27:57;;;;;;;3.33;1.00;;;12.50;99.90;;;;;;5097105;28;20052;-62
2024/02/10 12:30:24;;;;;;;3.30;1.00;;;12.60;99.90;;;;;;5087410;28;20055;-59
2024/02/10 12:32:51;;;;;;;2.55;0.82;;;12.60;99.90;;;;;;5094695;28;20566;-59
2024/02/10 12:35:19;;;;;;;3.55;1.00;;;12.70;99.90;;;;;;5100362;28;20037;-59
2024/02/10 12:37:47;;;;;;;4.90;1.08;;;12.70;99.90;;;;;;5092414;28;20524;-59
2024/02/10 12:40:14;;;;;;;2.72;0.70;;;12.70;99.90;;;;;;5092621;28;20043;-59
2024/02/10 12:42:44;;;;;;;4.10;1.08;;;12.70;99.90;;;;;;4744333;28;10000615;-59
2024/02/10 12:45:13;;;;;;;10.63;1.92;;;12.70;99.90;;;;;;5093208;28;20524;-60
2024/02/10 12:47:44;;;;;;;7.00;1.35;;;12.70;99.90;;;;;;5091345;28;20495;-61
2024/02/10 12:50:11;;;;;;;5.85;1.42;;;12.60;99.90;;;;;;5095565;28;20051;-60
2024/02/10 12:52:38;;;;;;;3.90;1.10;;;12.60;99.90;;;;;;5090252;28;20052;-60
2024/02/10 12:55:09;;;;;;;6.28;1.15;;;12.60;99.90;;;;;;5086305;28;20489;-60